createdAt,value
2019-02-25T00:00:46.542Z,48.98
2019-02-25T00:01:46.751Z,48.45
2019-02-25T00:02:46.363Z,48.91
2019-02-25T00:03:46.773Z,49.45
2019-02-25T00:04:46.604Z,49.29
2019-02-25T00:05:46.577Z,49.32
2019-02-25T00:06:46.531Z,49.33
2019-02-25T00:07:47.985Z,49.35
2019-02-25T00:08:46.562Z,49.36
2019-02-25T00:09:46.607Z,49.42
2019-02-25T00:10:46.977Z,49.29
2019-02-25T00:11:46.616Z,49.53
2019-02-25T00:12:48.379Z,50.24
2019-02-25T00:13:46.617Z,50.44
2019-02-25T00:14:46.684Z,50.51
2019-02-25T00:15:46.537Z,50.55
2019-02-25T00:16:46.674Z,50.32
2019-02-25T00:17:46.821Z,49.67
2019-02-25T00:18:46.535Z,49.87
2019-02-25T00:19:46.670Z,50.2
2019-02-25T00:20:46.505Z,49.92
2019-02-25T00:21:47.452Z,50.03
2019-02-25T00:22:46.855Z,49.7
2019-02-25T00:23:46.590Z,49.49
2019-02-25T00:24:46.520Z,49.49
2019-02-25T00:25:46.562Z,49.98
2019-02-25T00:26:46.880Z,49.69
2019-02-25T00:27:46.624Z,50.43
2019-02-25T00:28:46.532Z,50.71
2019-02-25T00:29:47.309Z,50.37
2019-02-25T00:30:47.416Z,49.88
2019-02-25T00:31:46.911Z,49.64
2019-02-25T00:32:47.627Z,49.85
2019-02-25T00:33:46.599Z,50.12
2019-02-25T00:34:46.729Z,50.36
2019-02-25T00:35:47.054Z,49.71
2019-02-25T00:36:46.727Z,49.81
2019-02-25T00:37:46.549Z,50.01
2019-02-25T00:38:46.752Z,49.22
2019-02-25T00:39:46.483Z,49.39
2019-02-25T00:40:46.601Z,49.64
2019-02-25T00:41:46.775Z,49.99
2019-02-25T00:42:46.963Z,50.83
2019-02-25T00:43:46.613Z,50.3
2019-02-25T00:44:46.523Z,49.87
2019-02-25T00:45:46.709Z,49.49
2019-02-25T00:46:46.478Z,49.35
2019-02-25T00:47:46.571Z,48.97
2019-02-25T00:48:46.819Z,48.82
2019-02-25T00:49:47.134Z,48.75
2019-02-25T00:50:48.322Z,48.79
2019-02-25T00:51:47.544Z,48.6
2019-02-25T00:52:46.587Z,49.73
2019-02-25T00:53:46.492Z,50
2019-02-25T00:54:46.556Z,49.95
2019-02-25T00:55:46.575Z,51.03
2019-02-25T00:56:46.537Z,51.49
2019-02-25T00:57:46.475Z,51.14
2019-02-25T00:58:46.469Z,51.07
2019-02-25T00:59:46.795Z,51.06
2019-02-25T01:00:47.012Z,51.45
2019-02-25T01:01:46.565Z,51.18
2019-02-25T01:02:46.522Z,50.52
2019-02-25T01:03:46.506Z,50.81
2019-02-25T01:04:46.719Z,51.02
2019-02-25T01:05:46.569Z,51.17
2019-02-25T01:06:47.190Z,51.6
2019-02-25T01:07:46.755Z,51.86
2019-02-25T01:08:46.534Z,52.43
2019-02-25T01:09:46.578Z,52.28
2019-02-25T01:10:46.628Z,52.14
2019-02-25T01:11:48.293Z,52.2
2019-02-25T01:12:47.216Z,52.6
2019-02-25T01:13:47.387Z,52.41
2019-02-25T01:14:46.517Z,52.32
2019-02-25T01:15:46.688Z,52.13
2019-02-25T01:16:46.546Z,51.81
2019-02-25T01:17:46.600Z,52.31
2019-02-25T01:18:46.550Z,52.42
2019-02-25T01:19:46.734Z,51.72
2019-02-25T01:20:47.028Z,52.51
2019-02-25T01:21:48.272Z,51.98
2019-02-25T01:22:47.307Z,52.23
2019-02-25T01:23:46.507Z,52.17
2019-02-25T01:24:47.353Z,52.17
2019-02-25T01:25:46.653Z,52.45
2019-02-25T01:26:46.768Z,53.77
2019-02-25T01:27:48.262Z,53.9
2019-02-25T01:28:46.980Z,53.58
2019-02-25T01:29:48.269Z,53.6
2019-02-25T01:30:46.686Z,52.66
2019-02-25T01:31:46.438Z,52.44
2019-02-25T01:32:47.007Z,52.12
2019-02-25T01:33:46.385Z,51.78
2019-02-25T01:34:47.374Z,51.75
2019-02-25T01:35:46.236Z,52.54
2019-02-25T01:36:46.225Z,51.95
2019-02-25T01:37:46.227Z,52.38
2019-02-25T01:38:46.234Z,52.17
2019-02-25T01:39:46.234Z,52.23
2019-02-25T01:40:46.653Z,51.57
2019-02-25T01:41:46.504Z,51.28
2019-02-25T01:42:47.280Z,51.34
2019-02-25T01:43:48.251Z,51.24
2019-02-25T01:44:46.221Z,51.83
2019-02-25T01:45:46.223Z,51.91
2019-02-25T01:46:46.478Z,52.7
2019-02-25T01:47:47.313Z,52.57
2019-02-25T01:48:46.400Z,52.65
2019-02-25T01:49:46.457Z,53.14
2019-02-25T01:50:46.628Z,53.59
2019-02-25T01:51:46.677Z,53.27
2019-02-25T01:52:47.145Z,53.07
2019-02-25T01:53:46.492Z,53.02
2019-02-25T01:54:46.368Z,53.08
2019-02-25T01:55:46.852Z,52.54
2019-02-25T01:56:47.477Z,52.41
2019-02-25T01:57:46.438Z,52.53
2019-02-25T01:58:47.076Z,53.64
2019-02-25T01:59:46.378Z,53.57
2019-02-25T02:00:46.475Z,53.06
2019-02-25T02:01:46.391Z,53.35
2019-02-25T02:02:47.335Z,53.69
2019-02-25T02:03:46.483Z,54.19
2019-02-25T02:04:46.430Z,54.57
2019-02-25T02:05:46.369Z,54.99
2019-02-25T02:06:48.149Z,55.44
2019-02-25T02:07:46.374Z,55.44
2019-02-25T02:08:46.632Z,55.26
2019-02-25T02:09:46.651Z,55.68
2019-02-25T02:10:46.644Z,55.53
2019-02-25T02:11:46.440Z,55.39
2019-02-25T02:12:46.361Z,55.42
2019-02-25T02:13:46.424Z,55.16
2019-02-25T02:14:46.554Z,55.49
2019-02-25T02:15:48.198Z,54.99
2019-02-25T02:16:46.581Z,54.9
2019-02-25T02:17:48.191Z,54.9
2019-02-25T02:18:47.107Z,54.89
2019-02-25T02:19:47.216Z,54.89
2019-02-25T02:20:46.384Z,55.08
2019-02-25T02:21:46.615Z,54.85
2019-02-25T02:22:46.361Z,54.64
2019-02-25T02:23:46.457Z,55.05
2019-02-25T02:24:46.334Z,54.65
2019-02-25T02:25:46.487Z,54.79
2019-02-25T02:26:46.680Z,55.17
2019-02-25T02:27:46.312Z,54.86
2019-02-25T02:28:46.433Z,55.34
2019-02-25T02:29:46.333Z,55.55
2019-02-25T02:30:46.587Z,55.41
2019-02-25T02:31:46.484Z,55.37
2019-02-25T02:32:47.303Z,55.71
2019-02-25T02:33:46.153Z,56.2
2019-02-25T02:34:46.498Z,55.73
2019-02-25T02:35:47.512Z,55.84
2019-02-25T02:36:46.611Z,55.72
2019-02-25T02:37:46.459Z,55.39
2019-02-25T02:38:46.624Z,55.34
2019-02-25T02:39:47.142Z,55.71
2019-02-25T02:40:48.176Z,56.03
2019-02-25T02:41:46.386Z,56.14
2019-02-25T02:42:46.323Z,56.62
2019-02-25T02:43:46.759Z,56.35
2019-02-25T02:44:46.560Z,56.74
2019-02-25T02:45:46.558Z,56.52
2019-02-25T02:46:46.451Z,56.45
2019-02-25T02:47:46.311Z,56.11
2019-02-25T02:48:46.485Z,56.04
2019-02-25T02:49:46.799Z,56.13
2019-02-25T02:50:46.912Z,56.25
2019-02-25T02:51:46.916Z,56.54
2019-02-25T02:52:46.417Z,56.37
2019-02-25T02:53:46.623Z,56.37
2019-02-25T02:54:46.627Z,56.78
2019-02-25T02:55:46.272Z,57.79
2019-02-25T02:56:46.353Z,57.94
2019-02-25T02:57:46.341Z,57.38
2019-02-25T02:58:46.683Z,56.93
2019-02-25T02:59:46.659Z,57.33
2019-02-25T03:00:46.316Z,57.17
2019-02-25T03:01:47.274Z,56.85
2019-02-25T03:02:46.413Z,56.86
2019-02-25T03:03:48.144Z,56.74
2019-02-25T03:04:48.131Z,56.49
2019-02-25T03:05:46.396Z,56.58
2019-02-25T03:06:47.118Z,56.71
2019-02-25T03:07:46.713Z,56.92
2019-02-25T03:08:46.476Z,56.55
2019-02-25T03:09:46.626Z,56.6
2019-02-25T03:10:46.401Z,56.76
2019-02-25T03:11:46.361Z,57.8
2019-02-25T03:12:46.370Z,58.33
2019-02-25T03:13:46.352Z,58.11
2019-02-25T03:14:46.660Z,58.03
2019-02-25T03:15:46.669Z,57.9
2019-02-25T03:16:46.675Z,58.68
2019-02-25T03:17:46.574Z,59.08
2019-02-25T03:18:47.001Z,59.09
2019-02-25T03:19:46.359Z,59.16
2019-02-25T03:20:46.474Z,58.84
2019-02-25T03:21:46.924Z,58.78
2019-02-25T03:22:46.942Z,59.19
2019-02-25T03:23:47.127Z,59.03
2019-02-25T03:24:46.547Z,59.35
2019-02-25T03:25:46.251Z,59.08
2019-02-25T03:26:46.431Z,59.14
2019-02-25T03:27:46.378Z,58.72
2019-02-25T03:28:46.548Z,59.37
2019-02-25T03:29:46.551Z,59.9
2019-02-25T03:30:48.088Z,59.97
2019-02-25T03:31:46.770Z,59.69
2019-02-25T03:32:46.273Z,59.25
2019-02-25T03:33:46.347Z,58.91
2019-02-25T03:34:46.340Z,58.39
2019-02-25T03:35:46.376Z,58.63
2019-02-25T03:36:46.505Z,58.53
2019-02-25T03:37:46.809Z,58.77
2019-02-25T03:38:46.234Z,57.91
2019-02-25T03:39:46.360Z,58.12
2019-02-25T03:40:46.233Z,58.52
2019-02-25T03:41:46.048Z,58.31
2019-02-25T03:42:46.338Z,57.89
2019-02-25T03:43:46.254Z,57.72
2019-02-25T03:44:47.162Z,57.41
2019-02-25T03:45:47.069Z,58.32
2019-02-25T03:46:46.300Z,58.13
2019-02-25T03:47:46.324Z,57.21
2019-02-25T03:48:46.587Z,56.73
2019-02-25T03:49:46.581Z,57.08
2019-02-25T03:50:46.346Z,57.13
2019-02-25T03:51:46.260Z,56.6
2019-02-25T03:52:46.499Z,57.17
2019-02-25T03:53:48.061Z,57.41
2019-02-25T03:54:46.331Z,56.74
2019-02-25T03:55:46.415Z,57.25
2019-02-25T03:56:46.356Z,57.12
2019-02-25T03:57:46.260Z,56.61
2019-02-25T03:58:47.677Z,56.78
2019-02-25T03:59:46.652Z,56.35
2019-02-25T04:00:46.447Z,56.28
2019-02-25T04:01:46.560Z,56.72
2019-02-25T04:02:46.562Z,57.29
2019-02-25T04:03:47.062Z,57.05
2019-02-25T04:04:48.034Z,56.85
2019-02-25T04:05:46.211Z,57.33
2019-02-25T04:06:47.105Z,57.16
2019-02-25T04:07:46.225Z,57.2
2019-02-25T04:08:46.404Z,57.47
2019-02-25T04:09:46.408Z,56.45
2019-02-25T04:10:46.415Z,56.34
2019-02-25T04:11:46.531Z,56.5
2019-02-25T04:12:46.324Z,56.94
2019-02-25T04:13:46.741Z,56.6
2019-02-25T04:14:46.197Z,57.46
2019-02-25T04:15:46.371Z,57.92
2019-02-25T04:16:46.555Z,58.34
2019-02-25T04:17:46.271Z,58.71
2019-02-25T04:18:46.180Z,58.24
2019-02-25T04:19:46.573Z,58.58
2019-02-25T04:20:46.478Z,58.42
2019-02-25T04:21:46.294Z,58.1
2019-02-25T04:22:46.400Z,58.05
2019-02-25T04:23:46.397Z,57.85
2019-02-25T04:24:46.710Z,59
2019-02-25T04:25:45.985Z,59.27
2019-02-25T04:26:46.183Z,58.76
2019-02-25T04:27:45.988Z,58.29
2019-02-25T04:28:48.001Z,58.69
2019-02-25T04:29:46.436Z,59.49
2019-02-25T04:30:46.441Z,58.98
2019-02-25T04:31:46.244Z,58.79
2019-02-25T04:32:46.224Z,58.25
2019-02-25T04:33:48.005Z,58.45
2019-02-25T04:34:46.243Z,57.95
2019-02-25T04:35:46.196Z,57.9
2019-02-25T04:36:46.435Z,58.29
2019-02-25T04:37:46.129Z,58.29
2019-02-25T04:38:46.339Z,58.04
2019-02-25T04:39:46.571Z,58.18
2019-02-25T04:40:46.322Z,58.18
2019-02-25T04:41:46.614Z,58.44
2019-02-25T04:42:46.158Z,58.3
2019-02-25T04:43:46.230Z,57.72
2019-02-25T04:44:46.272Z,58.35
2019-02-25T04:45:46.856Z,57.56
2019-02-25T04:46:46.341Z,58.7
2019-02-25T04:47:46.452Z,58.92
2019-02-25T04:48:46.290Z,58.69
2019-02-25T04:49:46.218Z,59.11
2019-02-25T04:50:47.968Z,59.07
2019-02-25T04:51:46.088Z,59.53
2019-02-25T04:52:46.125Z,59.59
2019-02-25T04:53:47.963Z,59.29
2019-02-25T04:54:46.501Z,59.47
2019-02-25T04:55:46.304Z,59.06
2019-02-25T04:56:46.963Z,59.33
2019-02-25T04:57:47.969Z,59.18
2019-02-25T04:58:46.316Z,58.98
2019-02-25T04:59:46.235Z,59.35
2019-02-25T05:00:46.111Z,59.22
2019-02-25T05:01:47.364Z,59.39
2019-02-25T05:02:47.963Z,59.53
2019-02-25T05:03:46.197Z,59.43
2019-02-25T05:04:46.460Z,60.27
2019-02-25T05:05:46.371Z,59.7
2019-02-25T05:06:46.273Z,59.95
2019-02-25T05:07:46.379Z,59.99
2019-02-25T05:08:46.451Z,59.31
2019-02-25T05:09:46.390Z,59.05
2019-02-25T05:10:47.113Z,59.31
2019-02-25T05:11:46.612Z,59.19
2019-02-25T05:12:47.121Z,59.44
2019-02-25T05:13:46.166Z,59.59
2019-02-25T05:14:47.941Z,59.61
2019-02-25T05:15:46.634Z,58.82
2019-02-25T05:16:46.201Z,59.44
2019-02-25T05:17:46.445Z,60.26
2019-02-25T05:18:46.346Z,60.12
2019-02-25T05:19:46.559Z,60.78
2019-02-25T05:20:46.258Z,60.91
2019-02-25T05:21:46.052Z,60.83
2019-02-25T05:22:46.784Z,61.02
2019-02-25T05:23:46.190Z,60.94
2019-02-25T05:24:46.217Z,60.88
2019-02-25T05:25:46.260Z,60.94
2019-02-25T05:26:46.149Z,60.58
2019-02-25T05:27:46.179Z,60.98
2019-02-25T05:28:47.916Z,60.16
2019-02-25T05:29:46.206Z,59.83
2019-02-25T05:30:46.186Z,59.15
2019-02-25T05:31:46.120Z,59.76
2019-02-25T05:32:46.211Z,59.39
2019-02-25T05:33:46.655Z,59.3
2019-02-25T05:34:47.899Z,59.52
2019-02-25T05:35:46.056Z,58.99
2019-02-25T05:36:46.027Z,58.87
2019-02-25T05:37:46.270Z,58.92
2019-02-25T05:38:46.479Z,59.08
2019-02-25T05:39:46.607Z,58.59
2019-02-25T05:40:46.392Z,58.9
2019-02-25T05:41:46.023Z,58.88
2019-02-25T05:42:46.149Z,59.14
2019-02-25T05:43:46.410Z,60.09
2019-02-25T05:44:46.299Z,60.24
2019-02-25T05:45:46.528Z,60.36
2019-02-25T05:46:46.635Z,60.05
2019-02-25T05:47:46.237Z,60.09
2019-02-25T05:48:46.446Z,60.02
2019-02-25T05:49:46.237Z,59.98
2019-02-25T05:50:49.479Z,59.96
2019-02-25T05:51:46.025Z,59.74
2019-02-25T05:52:46.979Z,59.84
2019-02-25T05:53:46.373Z,59.91
2019-02-25T05:54:46.389Z,60.17
2019-02-25T05:55:45.983Z,60.49
2019-02-25T05:56:46.626Z,60.01
2019-02-25T05:57:46.218Z,60.18
2019-02-25T05:58:46.410Z,59.93
2019-02-25T05:59:46.621Z,59.71
2019-02-25T06:00:46.215Z,59.77
2019-02-25T06:01:46.018Z,59.48
2019-02-25T06:02:46.310Z,59.5
2019-02-25T06:03:46.335Z,59.91
2019-02-25T06:04:46.444Z,60.11
2019-02-25T06:05:47.860Z,60.31
2019-02-25T06:06:46.765Z,60.55
2019-02-25T06:07:47.858Z,60.74
2019-02-25T06:08:47.848Z,61.13
2019-02-25T06:09:46.013Z,61.42
2019-02-25T06:10:46.105Z,60.32
2019-02-25T06:11:46.126Z,60.3
2019-02-25T06:12:46.068Z,60.5
2019-02-25T06:13:46.300Z,60.65
2019-02-25T06:14:46.154Z,60.1
2019-02-25T06:15:45.995Z,60.13
2019-02-25T06:16:47.241Z,59.93
2019-02-25T06:17:47.124Z,59.74
2019-02-25T06:18:47.838Z,59.87
2019-02-25T06:19:47.828Z,59.81
2019-02-25T06:20:45.980Z,59.78
2019-02-25T06:21:46.253Z,59.63
2019-02-25T06:22:46.001Z,59.96
2019-02-25T06:23:46.039Z,60.34
2019-02-25T06:24:46.269Z,60.17
2019-02-25T06:25:46.070Z,59.99
2019-02-25T06:26:46.385Z,60.27
2019-02-25T06:27:46.937Z,60.66
2019-02-25T06:28:46.388Z,60.86
2019-02-25T06:29:46.509Z,60.71
2019-02-25T06:30:46.229Z,60.75
2019-02-25T06:31:46.423Z,60.74
2019-02-25T06:32:46.018Z,60.41
2019-02-25T06:33:47.534Z,60.51
2019-02-25T06:34:46.340Z,60.55
2019-02-25T06:35:46.453Z,60.46
2019-02-25T06:36:46.084Z,60.01
2019-02-25T06:37:46.109Z,60.25
2019-02-25T06:38:46.472Z,60.25
2019-02-25T06:39:46.953Z,60.42
2019-02-25T06:40:46.033Z,60.34
2019-02-25T06:41:45.993Z,60.54
2019-02-25T06:42:46.027Z,60.7
2019-02-25T06:43:46.096Z,60.85
2019-02-25T06:44:46.030Z,61.61
2019-02-25T06:45:46.070Z,61.63
2019-02-25T06:46:46.834Z,61.57
2019-02-25T06:47:47.787Z,61.36
2019-02-25T06:48:46.330Z,60.99
2019-02-25T06:49:45.980Z,60.86
2019-02-25T06:50:45.992Z,60.88
2019-02-25T06:51:46.249Z,60.97
2019-02-25T06:52:46.084Z,60.76
2019-02-25T06:53:46.224Z,60.99
2019-02-25T06:54:46.028Z,61.16
2019-02-25T06:55:46.482Z,61.33
2019-02-25T06:56:46.080Z,61.03
2019-02-25T06:57:46.391Z,61.08
2019-02-25T06:58:46.190Z,61.12
2019-02-25T06:59:45.980Z,60.89
2019-02-25T07:00:47.768Z,60.61
2019-02-25T07:01:47.239Z,60.88
2019-02-25T07:02:46.040Z,60.74
2019-02-25T07:03:46.324Z,60.34
2019-02-25T07:04:45.930Z,60.33
2019-02-25T07:05:46.440Z,60.18
2019-02-25T07:06:47.745Z,60.29
2019-02-25T07:07:46.181Z,60.59
2019-02-25T07:08:46.057Z,60.53
2019-02-25T07:09:45.946Z,60.42
2019-02-25T07:10:45.944Z,59.78
2019-02-25T07:11:46.478Z,59.37
2019-02-25T07:12:46.080Z,60.05
2019-02-25T07:13:46.045Z,59.62
2019-02-25T07:14:47.455Z,60.06
2019-02-25T07:15:45.975Z,59.81
2019-02-25T07:16:47.229Z,59.93
2019-02-25T07:17:46.110Z,60
2019-02-25T07:18:47.758Z,59.97
2019-02-25T07:19:45.727Z,59.69
2019-02-25T07:20:45.880Z,59.26
2019-02-25T07:21:46.560Z,59.34
2019-02-25T07:22:46.655Z,59.59
2019-02-25T07:23:46.021Z,59.61
2019-02-25T07:24:52.575Z,59.81
2019-02-25T07:25:46.370Z,59.6
2019-02-25T07:26:45.990Z,59.08
2019-02-25T07:27:46.178Z,59.84
2019-02-25T07:28:46.015Z,59.93
2019-02-25T07:29:45.971Z,59.93
2019-02-25T07:30:46.317Z,59.68
2019-02-25T07:31:45.904Z,59.02
2019-02-25T07:32:46.414Z,59.42
2019-02-25T07:33:45.966Z,59.94
2019-02-25T07:34:46.503Z,59.93
2019-02-25T07:35:45.997Z,59.97
2019-02-25T07:36:46.344Z,59.72
2019-02-25T07:37:46.040Z,59.79
2019-02-25T07:38:46.251Z,59.42
2019-02-25T07:39:45.959Z,59.45
2019-02-25T07:40:46.070Z,59.11
2019-02-25T07:41:46.095Z,58.96
2019-02-25T07:42:46.275Z,58.9
2019-02-25T07:43:46.787Z,58.86
2019-02-25T07:44:47.004Z,59.08
2019-02-25T07:45:47.709Z,59.35
2019-02-25T07:46:46.200Z,59.06
2019-02-25T07:47:45.996Z,59.17
2019-02-25T07:48:46.878Z,59.13
2019-02-25T07:49:46.122Z,58.98
2019-02-25T07:50:47.286Z,59.47
2019-02-25T07:51:46.038Z,59.51
2019-02-25T07:52:46.213Z,59.34
2019-02-25T07:53:45.943Z,59.41
2019-02-25T07:54:46.152Z,59.61
2019-02-25T07:55:45.978Z,59.6
2019-02-25T07:56:46.060Z,59.27
2019-02-25T07:57:46.069Z,58.81
2019-02-25T07:58:45.928Z,59.02
2019-02-25T07:59:46.390Z,59.05
2019-02-25T08:00:46.088Z,59.23
2019-02-25T08:01:45.950Z,59.25
2019-02-25T08:02:45.833Z,59.36
2019-02-25T08:03:46.106Z,59.03
2019-02-25T08:04:45.895Z,59.21
2019-02-25T08:05:46.908Z,58.68
2019-02-25T08:06:47.671Z,58.52
2019-02-25T08:07:45.962Z,58.69
2019-02-25T08:08:45.974Z,58.28
2019-02-25T08:09:46.353Z,58.25
2019-02-25T08:10:45.942Z,58.19
2019-02-25T08:11:46.060Z,57.94
2019-02-25T08:12:46.166Z,57.56
2019-02-25T08:13:45.984Z,57.53
2019-02-25T08:14:46.179Z,57.45
2019-02-25T08:15:46.051Z,57.52
2019-02-25T08:16:45.989Z,56.57
2019-02-25T08:17:45.935Z,56.15
2019-02-25T08:18:45.932Z,56.66
2019-02-25T08:19:46.109Z,56.45
2019-02-25T08:20:46.729Z,56.51
2019-02-25T08:21:45.895Z,55.51
2019-02-25T08:22:46.339Z,55.36
2019-02-25T08:23:45.949Z,54.8
2019-02-25T08:24:47.635Z,54.73
2019-02-25T08:25:46.152Z,54.64
2019-02-25T08:26:46.673Z,53.94
2019-02-25T08:27:45.863Z,54.3
2019-02-25T08:28:45.820Z,54.26
2019-02-25T08:29:46.209Z,53.79
2019-02-25T08:30:46.197Z,53.04
2019-02-25T08:31:45.864Z,52.64
2019-02-25T08:32:46.739Z,52.95
2019-02-25T08:33:46.103Z,53.04
2019-02-25T08:34:45.886Z,52
2019-02-25T08:35:45.896Z,51.29
2019-02-25T08:36:46.731Z,51.91
2019-02-25T08:37:47.290Z,52.17
2019-02-25T08:38:46.137Z,52.63
2019-02-25T08:39:46.038Z,52
2019-02-25T08:40:45.740Z,52.26
2019-02-25T08:41:46.053Z,51.63
2019-02-25T08:42:46.227Z,50.67
2019-02-25T08:43:46.011Z,51.36
2019-02-25T08:44:45.970Z,51.02
2019-02-25T08:45:45.801Z,50.59
2019-02-25T08:46:45.983Z,50.76
2019-02-25T08:47:46.091Z,50.94
2019-02-25T08:48:46.308Z,50.77
2019-02-25T08:49:46.674Z,51.09
2019-02-25T08:50:46.111Z,50.61
2019-02-25T08:51:45.891Z,50.71
2019-02-25T08:52:47.604Z,50.57
2019-02-25T08:53:46.036Z,49.34
2019-02-25T08:54:45.766Z,49.02
2019-02-25T08:55:45.978Z,49.04
2019-02-25T08:56:46.054Z,49.23
2019-02-25T08:57:45.937Z,49.26
2019-02-25T08:58:45.721Z,48.54
2019-02-25T08:59:45.883Z,49.22
2019-02-25T09:00:47.589Z,49.75
2019-02-25T09:01:45.786Z,49.87
2019-02-25T09:02:45.762Z,49.39
2019-02-25T09:03:45.994Z,49.52
2019-02-25T09:04:46.602Z,49.77
2019-02-25T09:05:45.875Z,49.92
2019-02-25T09:06:46.016Z,49.95
2019-02-25T09:07:45.734Z,49.7
2019-02-25T09:08:46.648Z,49.78
2019-02-25T09:09:45.771Z,49.48
2019-02-25T09:10:46.969Z,49.59
2019-02-25T09:11:46.149Z,49.79
2019-02-25T09:12:45.754Z,49.7
2019-02-25T09:13:46.164Z,48.78
2019-02-25T09:14:46.169Z,48.69
2019-02-25T09:15:45.719Z,48.67
2019-02-25T09:16:47.324Z,48.14
2019-02-25T09:17:46.098Z,48.9
2019-02-25T09:18:46.095Z,48.39
2019-02-25T09:19:45.724Z,48.16
2019-02-25T09:20:46.108Z,48.05
2019-02-25T09:21:46.011Z,48
2019-02-25T09:22:45.787Z,48.53
2019-02-25T09:23:46.128Z,48.41
2019-02-25T09:24:45.688Z,48.05
2019-02-25T09:25:45.872Z,47.34
2019-02-25T09:26:45.944Z,47.8
2019-02-25T09:27:46.467Z,47.9
2019-02-25T09:28:45.955Z,48.13
2019-02-25T09:29:47.540Z,47.22
2019-02-25T09:30:45.972Z,46.79
2019-02-25T09:31:46.081Z,47.03
2019-02-25T09:32:46.251Z,46.8
2019-02-25T09:33:45.988Z,46.08
2019-02-25T09:34:47.063Z,46
2019-02-25T09:35:45.906Z,45.14
2019-02-25T09:36:46.017Z,44.81
2019-02-25T09:37:45.849Z,44.81
2019-02-25T09:38:47.268Z,45.16
2019-02-25T09:39:45.768Z,44.58
2019-02-25T09:40:45.651Z,43.76
2019-02-25T09:41:46.045Z,43.79
2019-02-25T09:42:45.715Z,44.16
2019-02-25T09:43:47.514Z,43.58
2019-02-25T09:44:45.716Z,42.9
2019-02-25T09:45:45.703Z,43.04
2019-02-25T09:46:46.220Z,43.08
2019-02-25T09:47:45.686Z,42.79
2019-02-25T09:48:46.012Z,42.93
2019-02-25T09:49:45.996Z,43.13
2019-02-25T09:50:45.691Z,42.54
2019-02-25T09:51:45.663Z,42.12
2019-02-25T09:52:45.637Z,41.56
2019-02-25T09:53:46.517Z,42.09
2019-02-25T09:54:45.889Z,41.45
2019-02-25T09:55:45.930Z,41.79
2019-02-25T09:56:45.940Z,42.25
2019-02-25T09:57:45.945Z,42.1
2019-02-25T09:58:46.052Z,41.6
2019-02-25T09:59:46.519Z,41.94
2019-02-25T10:00:46.232Z,39.65
2019-02-25T10:01:45.655Z,40.34
2019-02-25T10:02:45.639Z,40.74
2019-02-25T10:03:45.984Z,40.34
2019-02-25T10:04:45.991Z,40.08
2019-02-25T10:05:46.304Z,39.53
2019-02-25T10:06:45.901Z,38.31
2019-02-25T10:07:46.120Z,38.65
2019-02-25T10:08:46.537Z,38.01
2019-02-25T10:09:46.127Z,38.03
2019-02-25T10:10:45.636Z,37.66
2019-02-25T10:11:45.727Z,37.19
2019-02-25T10:12:45.730Z,37.53
2019-02-25T10:13:46.977Z,38.03
2019-02-25T10:14:49.381Z,38.51
2019-02-25T10:15:46.277Z,37.62
2019-02-25T10:16:46.723Z,38.22
2019-02-25T10:17:46.897Z,37.6
2019-02-25T10:18:45.791Z,37.65
2019-02-25T10:19:45.609Z,37.35
2019-02-25T10:20:45.708Z,37.92
2019-02-25T10:21:46.028Z,37.42
2019-02-25T10:22:45.721Z,37.81
2019-02-25T10:23:45.677Z,36.71
2019-02-25T10:24:45.923Z,36.85
2019-02-25T10:25:45.795Z,36.88
2019-02-25T10:26:46.556Z,36.7
2019-02-25T10:27:46.494Z,37.02
2019-02-25T10:28:45.729Z,36.4
2019-02-25T10:29:45.652Z,36.69
2019-02-25T10:30:52.521Z,36.25
2019-02-25T10:31:46.276Z,36.3
2019-02-25T10:32:45.929Z,37.33
2019-02-25T10:33:45.979Z,37.22
2019-02-25T10:34:45.648Z,36.68
2019-02-25T10:35:45.894Z,36.29
2019-02-25T10:36:48.124Z,36.6
2019-02-25T10:37:46.012Z,36.61
2019-02-25T10:38:45.415Z,34.98
2019-02-25T10:39:47.366Z,34.23
2019-02-25T10:40:47.289Z,34.83
2019-02-25T10:41:45.567Z,33.59
2019-02-25T10:42:45.677Z,33.15
2019-02-25T10:43:46.048Z,34.24
2019-02-25T10:44:46.053Z,34.92
2019-02-25T10:45:46.318Z,33.52
2019-02-25T10:46:46.936Z,33.15
2019-02-25T10:47:46.593Z,33.39
2019-02-25T10:48:47.284Z,33.61
2019-02-25T10:49:45.581Z,33.26
2019-02-25T10:50:45.757Z,33.08
2019-02-25T10:51:46.207Z,33.04
2019-02-25T10:52:47.568Z,31.13
2019-02-25T10:53:47.662Z,31.35
2019-02-25T10:54:47.859Z,31.22
2019-02-25T10:55:47.108Z,31.37
2019-02-25T10:56:47.327Z,30.96
2019-02-25T10:57:45.629Z,30.31
2019-02-25T10:58:47.187Z,30.96
2019-02-25T10:59:46.463Z,30.87
2019-02-25T11:00:46.028Z,29.7
2019-02-25T11:01:47.463Z,30.37
2019-02-25T11:02:46.779Z,30.04
2019-02-25T11:03:47.679Z,30.05
2019-02-25T11:04:47.353Z,30.41
2019-02-25T11:05:45.598Z,30.6
2019-02-25T11:06:45.650Z,29.41
2019-02-25T11:07:46.005Z,30.28
2019-02-25T11:08:46.666Z,30.4
2019-02-25T11:09:48.268Z,30.18
2019-02-25T11:10:46.979Z,28.7
2019-02-25T11:11:45.581Z,29.5
2019-02-25T11:12:45.667Z,29.44
2019-02-25T11:13:45.658Z,29.82
2019-02-25T11:14:45.952Z,30.09
2019-02-25T11:15:48.365Z,29.57
2019-02-25T11:16:47.633Z,30.14
2019-02-25T11:17:47.430Z,30.58
2019-02-25T11:18:45.979Z,30.42
2019-02-25T11:19:46.905Z,29.82
2019-02-25T11:20:46.612Z,30.21
2019-02-25T11:21:45.720Z,31.03
2019-02-25T11:22:46.085Z,30
2019-02-25T11:23:47.027Z,30.36
2019-02-25T11:24:47.256Z,31.14
2019-02-25T11:25:46.127Z,30.78
2019-02-25T11:26:47.386Z,30.97
2019-02-25T11:27:47.375Z,30.83
2019-02-25T11:28:45.612Z,31.01
2019-02-25T11:29:46.193Z,30.86
2019-02-25T11:30:47.422Z,30.67
2019-02-25T11:31:47.299Z,30.69
2019-02-25T11:32:45.597Z,31
2019-02-25T11:33:46.485Z,30.29
2019-02-25T11:34:45.880Z,31.21
2019-02-25T11:35:46.325Z,30.87
2019-02-25T11:36:45.635Z,30.74
2019-02-25T11:37:47.273Z,31.06
2019-02-25T11:38:45.505Z,30.59
2019-02-25T11:39:47.745Z,31.44
2019-02-25T11:40:46.436Z,30.69
2019-02-25T11:41:46.540Z,31.33
2019-02-25T11:42:45.335Z,31.31
2019-02-25T11:43:46.431Z,31.74
2019-02-25T11:44:45.536Z,30.89
2019-02-25T11:45:45.752Z,30.73
2019-02-25T11:46:45.958Z,31.55
2019-02-25T11:47:46.378Z,31.21
2019-02-25T11:48:45.333Z,31
2019-02-25T11:49:45.979Z,31.41
2019-02-25T11:50:47.022Z,31.32
2019-02-25T11:51:45.790Z,31.05
2019-02-25T11:52:45.725Z,30.95
2019-02-25T11:53:46.081Z,30.83
2019-02-25T11:54:47.332Z,30.87
2019-02-25T11:55:45.606Z,31.2
2019-02-25T11:56:45.550Z,31.49
2019-02-25T11:57:45.536Z,31.18
2019-02-25T11:58:45.735Z,31.87
2019-02-25T11:59:45.582Z,31.96
2019-02-25T12:00:45.541Z,31.27
2019-02-25T12:01:45.543Z,31.26
2019-02-25T12:02:46.395Z,31.21
2019-02-25T12:03:46.912Z,31.46
2019-02-25T12:04:45.688Z,31.26
2019-02-25T12:05:45.570Z,31.21
2019-02-25T12:06:45.789Z,31.65
2019-02-25T12:07:45.614Z,30.99
2019-02-25T12:08:46.116Z,31.32
2019-02-25T12:09:45.286Z,31.94
2019-02-25T12:10:45.637Z,31.46
2019-02-25T12:11:45.659Z,31.24
2019-02-25T12:12:46.349Z,31.42
2019-02-25T12:13:45.572Z,31.47
2019-02-25T12:14:45.948Z,31.34
2019-02-25T12:15:45.589Z,31.18
2019-02-25T12:16:47.303Z,31.34
2019-02-25T12:17:46.184Z,31.92
2019-02-25T12:18:47.303Z,31.93
2019-02-25T12:19:45.421Z,31.89
2019-02-25T12:20:45.744Z,32.31
2019-02-25T12:21:45.785Z,31.81
2019-02-25T12:22:45.792Z,32.3
2019-02-25T12:23:45.520Z,32.18
2019-02-25T12:24:46.358Z,32.14
2019-02-25T12:25:46.124Z,31.84
2019-02-25T12:26:46.025Z,32.16
2019-02-25T12:27:45.461Z,32.2
2019-02-25T12:28:47.304Z,32.34
2019-02-25T12:29:45.631Z,31.57
2019-02-25T12:30:45.853Z,31.75
2019-02-25T12:31:45.651Z,32.36
2019-02-25T12:32:45.537Z,32.57
2019-02-25T12:33:46.431Z,32.7
2019-02-25T12:34:45.568Z,32.27
2019-02-25T12:35:45.425Z,32.04
2019-02-25T12:36:45.500Z,32.29
2019-02-25T12:37:45.603Z,32.29
2019-02-25T12:38:45.496Z,32.29
2019-02-25T12:39:45.714Z,32.54
2019-02-25T12:40:45.541Z,32.39
2019-02-25T12:41:47.268Z,32.77
2019-02-25T12:42:47.261Z,32.83
2019-02-25T12:43:45.506Z,32.06
2019-02-25T12:44:46.284Z,32.15
2019-02-25T12:45:45.566Z,32.96
2019-02-25T12:46:46.264Z,32.75
2019-02-25T12:47:45.388Z,32.84
2019-02-25T12:48:45.396Z,32.46
2019-02-25T12:49:45.545Z,32.18
2019-02-25T12:50:47.254Z,32.7
2019-02-25T12:51:45.684Z,32.33
2019-02-25T12:52:45.690Z,32.54
2019-02-25T12:53:45.497Z,32.81
2019-02-25T12:54:45.424Z,32.83
2019-02-25T12:55:45.592Z,32.46